Map

Track Data

SID SEASON NUMBER BASIN SUBBASIN NAME ISO_TIME NATURE LAT LON WMO_WIND WMO_PRES WMO_AGENCY TRACK_TYPE DIST2LAND LANDFALL IFLAG USA_AGENCY USA_ATCF_ID USA_LAT USA_LON USA_RECORD USA_STATUS USA_WIND USA_PRES USA_SSHS USA_R34_NE USA_R34_SE USA_R34_SW USA_R34_NW USA_R50_NE USA_R50_SE USA_R50_SW USA_R50_NW USA_R64_NE USA_R64_SE USA_R64_SW USA_R64_NW USA_POCI USA_ROCI USA_RMW USA_EYE TOKYO_LAT TOKYO_LON TOKYO_GRADE TOKYO_WIND TOKYO_PRES TOKYO_R50_DIR TOKYO_R50_LONG TOKYO_R50_SHORT TOKYO_R30_DIR TOKYO_R30_LONG TOKYO_R30_SHORT TOKYO_LAND CMA_LAT CMA_LON CMA_CAT CMA_WIND CMA_PRES HKO_LAT HKO_LON HKO_CAT HKO_WIND HKO_PRES NEWDELHI_LAT NEWDELHI_LON NEWDELHI_GRADE NEWDELHI_WIND NEWDELHI_PRES NEWDELHI_CI NEWDELHI_DP NEWDELHI_POCI REUNION_LAT REUNION_LON REUNION_TYPE REUNION_WIND REUNION_PRES REUNION_TNUM REUNION_CI REUNION_RMW REUNION_R34_NE REUNION_R34_SE REUNION_R34_SW REUNION_R34_NW REUNION_R50_NE REUNION_R50_SE REUNION_R50_SW REUNION_R50_NW REUNION_R64_NE REUNION_R64_SE REUNION_R64_SW REUNION_R64_NW BOM_LAT BOM_LON BOM_TYPE BOM_WIND BOM_PRES BOM_TNUM BOM_CI BOM_RMW BOM_R34_NE BOM_R34_SE BOM_R34_SW BOM_R34_NW BOM_R50_NE BOM_R50_SE BOM_R50_SW BOM_R50_NW BOM_R64_NE BOM_R64_SE BOM_R64_SW BOM_R64_NW BOM_ROCI BOM_POCI BOM_EYE BOM_POS_METHOD BOM_PRES_METHOD NADI_LAT NADI_LON NADI_CAT NADI_WIND NADI_PRES WELLINGTON_LAT WELLINGTON_LON WELLINGTON_WIND WELLINGTON_PRES DS824_LAT DS824_LON DS824_STAGE DS824_WIND DS824_PRES TD9636_LAT TD9636_LON TD9636_STAGE TD9636_WIND TD9636_PRES TD9635_LAT TD9635_LON TD9635_WIND TD9635_PRES TD9635_ROCI NEUMANN_LAT NEUMANN_LON NEUMANN_CLASS NEUMANN_WIND NEUMANN_PRES MLC_LAT MLC_LON MLC_CLASS MLC_WIND MLC_PRES USA_GUST BOM_GUST BOM_GUST_PER REUNION_GUST REUNION_GUST_PER USA_SEAHGT USA_SEARAD_NE USA_SEARAD_SE USA_SEARAD_SW USA_SEARAD_NW STORM_SPEED STORM_DIR
1966271N18331 1966 92 NA NA NOT_NAMED 1966-09-27 18:00:00 TS 18.0000 -29.0000 30 hurdat_atl main 1281 1281 O_____________ hurdat_atl AL141966 18.0000 -29.0000 TD 30 -1 10 272
1966271N18331 1966 92 NA NA NOT_NAMED 1966-09-27 21:00:00 TS 18.0178 -29.4999 main 1332 1332 P_____________ AL141966 18.0178 -29.4999 TD 30 -1 10 270
1966271N18331 1966 92 NA NA NOT_NAMED 1966-09-28 00:00:00 TS 18.0000 -30.0000 30 hurdat_atl main 1383 1383 O_____________ hurdat_atl AL141966 18.0000 -30.0000 TD 30 -1 10 264
1966271N18331 1966 92 NA NA NOT_NAMED 1966-09-28 03:00:00 TS 17.9224 -30.5000 main 1432 1432 P_____________ AL141966 17.9224 -30.5000 TD 30 -1 10 258
1966271N18331 1966 92 NA NA NOT_NAMED 1966-09-28 06:00:00 TS 17.8000 -31.0000 30 hurdat_atl main 1482 1482 O_____________ hurdat_atl AL141966 17.8000 -31.0000 TD 30 -1 10 255
1966271N18331 1966 92 NA NA NOT_NAMED 1966-09-28 09:00:00 TS 17.6724 -31.4999 main 1532 1532 P_____________ AL141966 17.6724 -31.4999 TD 30 -1 10 253
1966271N18331 1966 92 NA NA NOT_NAMED 1966-09-28 12:00:00 TS 17.5000 -32.0000 30 hurdat_atl main 1580 1580 O_____________ hurdat_atl AL141966 17.5000 -32.0000 TD 30 -1 11 247
1966271N18331 1966 92 NA NA NOT_NAMED 1966-09-28 15:00:00 TS 17.2650 -32.5150 main 1629 1629 P_____________ AL141966 17.2650 -32.5150 TD 27 -1 11 242
1966271N18331 1966 92 NA NA NOT_NAMED 1966-09-28 18:00:00 TS 17.0000 -33.0000 25 hurdat_atl main 1677 1677 O_____________ hurdat_atl AL141966 17.0000 -33.0000 TD 25 -1 10 238
1966271N18331 1966 92 NA NA NOT_NAMED 1966-09-28 21:00:00 TS 16.7348 -33.4149 main 1716 1716 P_____________ AL141966 16.7348 -33.4149 TD 25 -1 9 237
1966271N18331 1966 92 NA NA NOT_NAMED 1966-09-29 00:00:00 TS 16.5000 -33.8000 25 hurdat_atl main 1757 1757 O_____________ hurdat_atl AL141966 16.5000 -33.8000 TD 25 -1 9 241
1966271N18331 1966 92 NA NA NOT_NAMED 1966-09-29 03:00:00 TS 16.3199 -34.1924 main 1798 1798 P_____________ AL141966 16.3199 -34.1924 TD 25 -1 8 249
1966271N18331 1966 92 NA NA NOT_NAMED 1966-09-29 06:00:00 TS 16.2000 -34.6000 25 hurdat_atl main 1840 1840 O_____________ hurdat_atl AL141966 16.2000 -34.6000 TD 25 -1 8 256
1966271N18331 1966 92 NA NA NOT_NAMED 1966-09-29 09:00:00 TS 16.1199 -35.0350 main 1882 1882 P_____________ AL141966 16.1199 -35.0350 TD 25 -1 9 263
1966271N18331 1966 92 NA NA NOT_NAMED 1966-09-29 12:00:00 TS 16.1000 -35.5000 25 hurdat_atl main 1936 1936 O_____________ hurdat_atl AL141966 16.1000 -35.5000 TD 25 -1 9 270
1966271N18331 1966 92 NA NA NOT_NAMED 1966-09-29 15:00:00 TS 16.1199 -35.9925 main 1989 1989 P_____________ AL141966 16.1199 -35.9925 TD 25 -1 10 276
1966271N18331 1966 92 NA NA NOT_NAMED 1966-09-29 18:00:00 TS 16.2000 -36.5000 25 hurdat_atl main 2043 2043 O_____________ hurdat_atl AL141966 16.2000 -36.5000 TD 25 -1 10 281
1966271N18331 1966 92 NA NA NOT_NAMED 1966-09-29 21:00:00 TS 16.3049 -37.0002 main 2060 2034 P_____________ AL141966 16.3049 -37.0002 TD 25 -1 10 287
1966271N18331 1966 92 NA NA NOT_NAMED 1966-09-30 00:00:00 TS 16.5000 -37.5000 25 hurdat_atl main 2034 2016 O_____________ hurdat_atl AL141966 16.5000 -37.5000 TD 25 -1 11 298
1966271N18331 1966 92 NA NA NOT_NAMED 1966-09-30 03:00:00 TS 16.8124 -38.0000 main 2016 2008 P_____________ AL141966 16.8124 -38.0000 TD 25 -1 12 306
1966271N18331 1966 92 NA NA NOT_NAMED 1966-09-30 06:00:00 TS 17.2000 -38.5000 25 hurdat_atl main 2008 2001 O_____________ hurdat_atl AL141966 17.2000 -38.5000 TD 25 -1 12 309
1966271N18331 1966 92 NA NA NOT_NAMED 1966-09-30 09:00:00 TS 17.5774 -39.0003 main 2003 1996 P_____________ AL141966 17.5774 -39.0003 TD 25 -1 12 310
1966271N18331 1966 92 NA NA NOT_NAMED 1966-09-30 12:00:00 TS 18.0000 -39.5000 25 hurdat_atl main 2001 1999 O_____________ hurdat_atl AL141966 18.0000 -39.5000 TD 25 -1 13 314
1966271N18331 1966 92 NA NA NOT_NAMED 1966-09-30 15:00:00 TS 18.4828 -39.9993 main 2009 2003 P_____________ AL141966 18.4828 -39.9993 TD 25 -1 14 317
1966271N18331 1966 92 NA NA NOT_NAMED 1966-09-30 18:00:00 TS 19.0000 -40.5000 25 hurdat_atl main 2021 O_____________ hurdat_atl AL141966 19.0000 -40.5000 TD 25 -1 14 318

About IBTrACS Database

This database is a web-friendly format of International Best Track Archive for Climate Stewardship (IBTrACS), a global best track data archive curated by NOAA dating back to 1842.

Updated: 2022-05-24